Time;durP1;ratioP1;P1;durP2;ratioP2;P2;SDS_P1;SDS_P2;PMS_P1;PMS_P2;Temp;Humidity;BMP_temperature;BMP_pressure;BME280_temperature;BME280_humidity;BME280_pressure;Samples;Min_cycle;Max_cycle;Signal;HPM_P1;HPM_P2
2023/08/03 00:00:13;;;;;;;3.45;1.50;;;;;;;20.17;100.00;-18569.44;5104148;28;20201;-79
2023/08/03 00:02:40;;;;;;;4.50;1.38;;;;;;;19.95;100.00;-18563.59;5104622;28;20426;-77
2023/08/03 00:05:06;;;;;;;3.63;1.50;;;;;;;20.00;100.00;-18564.97;5104452;28;20051;-78
2023/08/03 00:07:34;;;;;;;5.60;1.67;;;;;;;19.96;100.00;-18563.88;5099789;28;20039;-78
2023/08/03 00:10:00;;;;;;;3.10;1.63;;;;;;;19.92;100.00;-18562.78;5083907;28;20097;-77
2023/08/03 00:12:26;;;;;;;4.72;1.92;;;;;;;19.86;100.00;-18561.16;5098973;28;20479;-77
2023/08/03 00:14:52;;;;;;;3.03;1.90;;;;;;;19.81;100.00;-18559.78;5104467;28;20063;-78
2023/08/03 00:17:17;;;;;;;5.10;1.90;;;;;;;19.88;100.00;-18561.56;5104038;28;20452;-78
2023/08/03 00:19:43;;;;;;;3.83;1.88;;;;;;;19.82;100.00;-18560.06;5103371;28;20043;-77
2023/08/03 00:22:09;;;;;;;6.50;2.28;;;;;;;19.76;100.00;-18558.41;5103079;28;20123;-78
2023/08/03 00:24:34;;;;;;;3.45;1.88;;;;;;;19.71;100.00;-18557.19;5104012;28;20122;-78
2023/08/03 00:27:00;;;;;;;6.28;2.55;;;;;;;19.83;100.00;-18560.34;5100903;28;20140;-77
2023/08/03 00:29:25;;;;;;;4.57;2.03;;;;;;;19.84;100.00;-18560.75;5103908;28;20047;-76
2023/08/03 00:31:50;;;;;;;3.33;1.95;;;;;;;19.77;100.00;-18558.69;5099791;28;20035;-78
2023/08/03 00:34:18;;;;;;;4.75;2.28;;;;;;;19.75;100.00;-18558.16;5101825;28;20082;-78
2023/08/03 00:36:43;;;;;;;4.05;2.33;;;;;;;19.78;100.00;-18558.97;5103782;28;20044;-78
2023/08/03 00:39:09;;;;;;;3.75;2.33;;;;;;;19.67;100.00;-18555.97;5104509;28;20043;-78
2023/08/03 00:41:34;;;;;;;3.97;2.75;;;;;;;19.63;100.00;-18555.00;5103637;28;20248;-77
2023/08/03 00:44:00;;;;;;;7.35;3.10;;;;;;;19.71;100.00;-18557.06;5104713;28;20170;-78
2023/08/03 00:46:25;;;;;;;4.40;2.40;;;;;;;19.69;100.00;-18556.66;5099832;28;20082;-77
2023/08/03 00:48:51;;;;;;;7.05;3.35;;;;;;;19.74;100.00;-18558.00;5104694;28;20047;-78
2023/08/03 00:51:16;;;;;;;4.03;3.13;;;;;;;19.69;100.00;-18556.66;5087777;28;20134;-77
2023/08/03 00:53:45;;;;;;;4.20;2.70;;;;;;;19.59;100.00;-18554.06;5103102;28;20514;-77
2023/08/03 00:56:11;;;;;;;;;;;;;;;19.74;100.00;-18557.88;5100180;28;20472;-78
2023/08/03 00:58:36;;;;;;;6.38;3.42;;;;;;;19.60;100.00;-18554.19;5105239;28;19924;-77
2023/08/03 01:01:01;;;;;;;5.43;3.05;;;;;;;19.61;100.00;-18554.59;5101315;28;20094;-77
2023/08/03 01:03:27;;;;;;;2.83;2.63;;;;;;;19.72;100.00;-18557.34;5101562;28;20040;-77
2023/08/03 01:05:52;;;;;;;3.95;2.95;;;;;;;19.70;100.00;-18556.78;5080913;28;20043;-78
2023/08/03 01:08:17;;;;;;;5.15;3.20;;;;;;;19.72;100.00;-18557.47;5086093;28;20043;-78
2023/08/03 01:10:43;;;;;;;5.22;3.10;;;;;;;19.58;100.00;-18553.78;5085926;28;20048;-78
2023/08/03 01:13:08;;;;;;;9.77;3.35;;;;;;;19.50;100.00;-18551.59;5101516;28;20084;-77
2023/08/03 01:15:34;;;;;;;3.75;3.17;;;;;;;19.49;100.00;-18551.19;5102170;28;20035;-78
2023/08/03 01:17:59;;;;;;;3.67;2.80;;;;;;;19.56;100.00;-18553.25;5081514;28;20546;-78
2023/08/03 01:20:25;;;;;;;3.90;3.28;;;;;;;19.60;100.00;-18554.19;5100811;28;20050;-77
2023/08/03 01:22:51;;;;;;;5.00;3.50;;;;;;;19.68;100.00;-18556.25;5102089;28;20448;-78
2023/08/03 01:25:16;;;;;;;3.90;3.30;;;;;;;19.73;100.00;-18557.75;5087195;28;20043;-77
2023/08/03 01:27:45;;;;;;;3.97;3.20;;;;;;;19.66;100.00;-18555.69;5101710;28;20125;-78
2023/08/03 01:30:10;;;;;;;4.28;3.47;;;;;;;19.58;100.00;-18553.78;5105657;28;20039;-76
2023/08/03 01:32:36;;;;;;;3.60;3.30;;;;;;;19.68;100.00;-18556.38;5103132;28;20986;-78
2023/08/03 01:35:01;;;;;;;5.22;3.47;;;;;;;19.67;100.00;-18555.97;5102783;28;20044;-80
2023/08/03 01:37:27;;;;;;;4.10;3.70;;;;;;;19.63;100.00;-18554.88;5102505;28;20084;-78
2023/08/03 01:39:52;;;;;;;4.75;4.28;;;;;;;19.42;100.00;-18549.28;5105567;28;20067;-76
2023/08/03 01:42:18;;;;;;;7.03;5.10;;;;;;;19.61;100.00;-18554.59;5104691;28;20678;-79
2023/08/03 01:44:43;;;;;;;6.65;5.00;;;;;;;19.55;100.00;-18552.97;5102553;28;20088;-77
2023/08/03 01:47:09;;;;;;;6.65;6.03;;;;;;;19.59;100.00;-18554.06;5091583;28;20143;-77
2023/08/03 01:49:35;;;;;;;5.93;5.30;;;;;;;19.54;100.00;-18552.69;5098039;28;20040;-77
2023/08/03 01:52:00;;;;;;;6.10;5.60;;;;;;;19.52;100.00;-18552.16;5098550;28;20036;-78
2023/08/03 01:54:26;;;;;;;5.57;5.07;;;;;;;19.60;100.00;-18554.19;5097486;28;20457;-77
2023/08/03 01:56:55;;;;;;;7.00;6.25;;;;;;;19.74;100.00;-18557.88;5103832;28;20118;-78
2023/08/03 01:59:20;;;;;;;9.25;6.15;;;;;;;19.73;100.00;-18557.59;5105013;28;20042;-78
2023/08/03 02:01:45;;;;;;;6.45;5.72;;;;;;;19.75;100.00;-18558.16;5102482;28;20044;-79
2023/08/03 02:04:11;;;;;;;7.85;7.05;;;;;;;19.64;100.00;-18555.16;5103312;28;20116;-78
2023/08/03 02:06:37;;;;;;;9.20;8.10;;;;;;;19.56;100.00;-18553.25;5079860;28;20692;-78
2023/08/03 02:09:04;;;;;;;9.60;8.65;;;;;;;19.53;100.00;-18552.28;5102686;28;20043;-79
2023/08/03 02:11:29;;;;;;;9.13;8.18;;;;;;;19.64;100.00;-18555.16;5101778;28;20054;-78
2023/08/03 02:13:55;;;;;;;14.00;8.88;;;;;;;19.77;100.00;-18558.84;5102302;28;20065;-78
2023/08/03 02:16:20;;;;;;;9.57;8.48;;;;;;;19.78;100.00;-18559.09;5100871;28;20039;-78
2023/08/03 02:18:45;;;;;;;10.63;9.50;;;;;;;19.76;100.00;-18558.41;5102748;28;20043;-77
2023/08/03 02:21:11;;;;;;;10.30;9.45;;;;;;;19.64;100.00;-18555.16;5101351;28;20510;-77
2023/08/03 02:23:36;;;;;;;11.10;10.10;;;;;;;19.63;100.00;-18554.88;5085377;28;20131;-78
2023/08/03 02:26:05;;;;;;;11.57;10.48;;;;;;;19.65;100.00;-18555.41;5102341;28;20044;-76
2023/08/03 02:28:31;;;;;;;12.10;10.90;;;;;;;19.70;100.00;-18556.94;5103358;28;21212;-78
2023/08/03 02:30:57;;;;;;;12.50;11.35;;;;;;;19.61;100.00;-18554.59;5101647;28;20380;-78
2023/08/03 02:33:23;;;;;;;12.98;11.55;;;;;;;19.65;100.00;-18555.41;5081847;28;20054;-78
2023/08/03 02:35:48;;;;;;;14.88;13.35;;;;;;;19.67;100.00;-18555.97;5103540;28;20050;-77
2023/08/03 02:38:13;;;;;;;14.30;12.95;;;;;;;19.43;100.00;-18549.69;5103503;28;20048;-80
2023/08/03 02:40:39;;;;;;;13.95;12.90;;;;;;;19.35;100.00;-18547.53;5102233;28;20057;-78
2023/08/03 02:43:04;;;;;;;15.35;13.85;;;;;;;19.46;100.00;-18550.53;5103028;28;20035;-77
2023/08/03 02:45:29;;;;;;;14.27;13.18;;;;;;;19.38;100.00;-18548.34;5104219;28;20069;-78
2023/08/03 02:47:55;;;;;;;15.70;14.40;;;;;;;19.40;100.00;-18548.88;5107168;28;20089;-78
2023/08/03 02:50:21;;;;;;;16.10;14.70;;;;;;;19.48;100.00;-18550.94;5108003;28;20402;-76
2023/08/03 02:52:46;;;;;;;14.25;13.05;;;;;;;19.49;100.00;-18551.19;5105600;28;20051;-78
2023/08/03 02:55:11;;;;;;;14.73;13.57;;;;;;;19.64;100.00;-18555.28;5107407;28;20050;-78
2023/08/03 02:57:37;;;;;;;16.88;15.48;;;;;;;19.66;100.00;-18555.69;5097373;28;20403;-76
2023/08/03 03:00:03;;;;;;;14.82;13.70;;;;;;;19.49;100.00;-18551.34;5101899;28;20123;-78
2023/08/03 03:02:29;;;;;;;15.45;14.25;;;;;;;19.33;100.00;-18546.97;5104995;28;20044;-78
2023/08/03 03:04:54;;;;;;;17.38;16.00;;;;;;;19.47;100.00;-18550.78;5106600;28;20039;-79
2023/08/03 03:07:19;;;;;;;16.35;15.15;;;;;;;19.54;100.00;-18552.69;5105916;28;20060;-77
2023/08/03 03:09:45;;;;;;;17.85;16.33;;;;;;;19.75;100.00;-18558.16;5106729;28;20043;-78
2023/08/03 03:12:10;;;;;;;17.48;15.90;;;;;;;19.78;100.00;-18558.97;5105214;28;20514;-78
2023/08/03 03:14:35;;;;;;;18.23;16.85;;;;;;;19.79;100.00;-18559.38;5104765;28;20043;-77
2023/08/03 03:17:01;;;;;;;18.58;17.10;;;;;;;19.80;100.00;-18559.50;5087919;28;20083;-77
2023/08/03 03:19:27;;;;;;;17.73;16.23;;;;;;;19.70;100.00;-18556.78;5105607;28;20057;-77
2023/08/03 03:21:52;;;;;;;18.20;16.75;;;;;;;19.65;100.00;-18555.56;5104987;28;20119;-78
2023/08/03 03:24:18;;;;;;;19.40;17.90;;;;;;;19.75;100.00;-18558.28;5103295;28;20448;-78
2023/08/03 03:26:43;;;;;;;18.15;16.77;;;;;;;19.54;100.00;-18552.69;5104067;28;20134;-77
2023/08/03 03:29:08;;;;;;;18.92;17.55;;;;;;;19.66;100.00;-18555.84;5103800;28;20067;-77
2023/08/03 03:31:34;;;;;;;20.60;18.80;;;;;;;19.75;100.00;-18558.28;5086773;28;20104;-77
2023/08/03 03:33:59;;;;;;;20.02;18.35;;;;;;;19.67;100.00;-18556.09;5079910;28;20104;-78
2023/08/03 03:36:24;;;;;;;19.73;18.23;;;;;;;19.59;100.00;-18554.06;5093037;28;20115;-77
2023/08/03 03:38:50;;;;;;;20.80;19.10;;;;;;;19.64;100.00;-18555.16;5108852;28;20044;-78
2023/08/03 03:41:18;;;;;;;18.98;17.58;;;;;;;19.71;100.00;-18557.06;5105860;28;20095;-78
2023/08/03 03:43:43;;;;;;;20.60;19.10;;;;;;;19.66;100.00;-18555.84;5100626;28;20117;-78
2023/08/03 03:46:09;;;;;;;18.63;17.05;;;;;;;19.57;100.00;-18553.38;5100113;28;20073;-77
2023/08/03 03:48:34;;;;;;;16.88;15.77;;;;;;;19.58;100.00;-18553.78;5082841;28;20046;-78
2023/08/03 03:50:59;;;;;;;16.92;15.80;;;;;;;19.40;100.00;-18548.88;5087009;28;20081;-78
2023/08/03 03:53:25;;;;;;;16.77;15.55;;;;;;;19.34;100.00;-18547.38;5103373;28;20379;-77
2023/08/03 03:55:50;;;;;;;17.98;16.75;;;;;;;19.48;100.00;-18550.94;5104875;28;20046;-78
2023/08/03 03:58:15;;;;;;;17.75;16.50;;;;;;;19.42;100.00;-18549.44;5104860;28;20031;-77
2023/08/03 04:00:41;;;;;;;18.08;16.08;;;;;;;19.43;100.00;-18549.69;5104083;28;20032;-76
2023/08/03 04:03:07;;;;;;;18.20;16.50;;;;;;;19.51;100.00;-18551.88;5103742;28;20039;-77
2023/08/03 04:05:34;;;;;;;20.08;18.30;;;;;;;19.53;100.00;-18552.44;5104375;28;20173;-78
2023/08/03 04:07:59;;;;;;;18.25;16.88;;;;;;;19.44;100.00;-18549.97;5105904;28;20045;-77
2023/08/03 04:10:24;;;;;;;19.08;17.27;;;;;;;19.48;100.00;-18551.06;5103960;28;20085;-77
2023/08/03 04:12:50;;;;;;;18.73;17.02;;;;;;;19.41;100.00;-18549.16;5085351;28;20046;-77
2023/08/03 04:15:15;;;;;;;19.42;17.60;;;;;;;19.42;100.00;-18549.28;5099739;28;20035;-78
2023/08/03 04:17:41;;;;;;;19.70;18.10;;;;;;;19.38;100.00;-18548.34;5097039;28;20119;-77
2023/08/03 04:20:07;;;;;;;19.00;17.50;;;;;;;19.35;100.00;-18547.53;5103896;28;20118;-79
2023/08/03 04:22:32;;;;;;;21.42;19.48;;;;;;;19.41;100.00;-18549.16;5104537;28;20551;-78
2023/08/03 04:24:58;;;;;;;20.88;18.98;;;;;;;19.45;100.00;-18550.09;5087061;28;20520;-78
2023/08/03 04:27:23;;;;;;;20.98;18.98;;;;;;;19.51;100.00;-18551.75;5105358;28;20047;-78
2023/08/03 04:29:48;;;;;;;23.45;21.40;;;;;;;19.62;100.00;-18554.75;5084247;28;20054;-78
2023/08/03 04:32:14;;;;;;;22.48;20.67;;;;;;;19.45;100.00;-18550.09;5103834;28;20046;-79
2023/08/03 04:34:39;;;;;;;23.30;21.52;;;;;;;19.42;100.00;-18549.44;5101844;28;20135;-78
2023/08/03 04:37:04;;;;;;;22.80;21.00;;;;;;;19.37;100.00;-18548.06;5104786;28;20127;-77
2023/08/03 04:39:30;;;;;;;22.30;20.48;;;;;;;19.30;100.00;-18546.28;5103884;28;20256;-79
2023/08/03 04:41:55;;;;;;;22.10;20.30;;;;;;;19.25;100.00;-18544.78;5103233;28;20054;-77
2023/08/03 04:44:20;;;;;;;21.88;20.38;;;;;;;19.25;100.00;-18544.78;5103088;28;20047;-77
2023/08/03 04:46:46;;;;;;;22.15;20.35;;;;;;;19.24;100.00;-18544.66;5105134;28;20035;-78
2023/08/03 04:49:13;;;;;;;23.90;21.88;;;;;;;19.25;100.00;-18544.78;5105162;28;20107;-77
2023/08/03 04:51:38;;;;;;;23.83;21.77;;;;;;;19.15;100.00;-18542.34;5104112;28;20060;-79
2023/08/03 04:54:04;;;;;;;22.45;21.05;;;;;;;19.12;100.00;-18541.38;5105053;28;20039;-80
2023/08/03 04:56:29;;;;;;;21.60;20.02;;;;;;;19.08;100.00;-18540.31;5103174;28;20040;-78
2023/08/03 04:58:54;;;;;;;20.75;19.23;;;;;;;19.02;100.00;-18538.81;5103298;28;20369;-79
2023/08/03 05:01:20;;;;;;;21.83;20.33;;;;;;;19.04;100.00;-18539.22;5102536;28;20099;-79
2023/08/03 05:03:45;;;;;;;21.77;20.40;;;;;;;19.13;100.00;-18541.81;5104663;28;20078;-79
2023/08/03 05:06:11;;;;;;;22.13;20.38;;;;;;;19.14;100.00;-18542.06;5098332;28;20514;-76
2023/08/03 05:08:36;;;;;;;23.08;21.38;;;;;;;19.11;100.00;-18541.25;5102668;28;20071;-78
2023/08/03 05:11:01;;;;;;;23.45;21.80;;;;;;;19.19;100.00;-18543.16;5102931;28;20583;-76
2023/08/03 05:13:27;;;;;;;20.85;19.55;;;;;;;19.07;100.00;-18540.16;5103360;28;20507;-78
2023/08/03 05:15:52;;;;;;;23.10;21.58;;;;;;;19.26;100.00;-18545.06;5101097;28;20040;-78
2023/08/03 05:18:17;;;;;;;22.17;20.50;;;;;;;19.24;100.00;-18544.53;5100444;28;20036;-77
2023/08/03 05:20:43;;;;;;;21.48;19.98;;;;;;;19.13;100.00;-18541.66;5099644;28;20588;-78
2023/08/03 05:23:09;;;;;;;23.25;21.50;;;;;;;19.09;100.00;-18540.72;5100553;28;20059;-75
2023/08/03 05:25:34;;;;;;;22.25;20.65;;;;;;;19.01;100.00;-18538.53;5103398;28;20049;-77
2023/08/03 05:28:00;;;;;;;23.20;21.48;;;;;;;19.08;100.00;-18540.31;5106092;28;20047;-76
2023/08/03 05:30:26;;;;;;;24.70;22.98;;;;;;;19.16;100.00;-18542.47;5101515;28;20052;-76
2023/08/03 05:32:51;;;;;;;21.90;20.65;;;;;;;19.06;100.00;-18539.75;5107082;28;20054;-76
2023/08/03 05:35:16;;;;;;;23.02;21.65;;;;;;;19.13;100.00;-18541.81;5105100;28;20039;-77
2023/08/03 05:37:42;;;;;;;23.48;21.80;;;;;;;19.23;100.00;-18544.25;5106504;28;20040;-77
2023/08/03 05:40:08;;;;;;;22.20;20.52;;;;;;;19.17;100.00;-18542.88;5105898;28;20050;-76
2023/08/03 05:42:38;;;;;;;22.20;20.73;;;;;;;19.21;100.00;-18543.72;5101435;28;20039;-78
2023/08/03 05:45:44;;;;;;;22.92;21.45;;;;;;;19.46;100.00;-18550.38;5100521;28;20117;-77
2023/08/03 05:48:20;;;;;;;24.27;22.95;;;;;;;19.37;100.00;-18548.06;5098376;28;20040;-78
2023/08/03 05:50:51;;;;;;;24.73;23.20;;;;;;;19.36;100.00;-18547.78;5090294;28;20101;-78
2023/08/03 05:53:17;;;;;;;24.30;22.67;;;;;;;19.48;100.00;-18550.94;5100668;28;20051;-77
2023/08/03 05:55:43;;;;;;;24.20;22.67;;;;;;;19.55;100.00;-18552.97;5105190;28;20106;-79
2023/08/03 05:58:12;;;;;;;25.63;23.70;;;;;;;19.54;100.00;-18552.56;5104948;28;20055;-79
2023/08/03 06:00:39;;;;;;;25.27;23.67;;;;;;;19.59;100.00;-18554.06;5102505;28;20035;-77
2023/08/03 06:03:05;;;;;;;25.35;23.95;;;;;;;19.64;100.00;-18555.16;5104299;28;20059;-79
2023/08/03 06:05:41;;;;;;;25.55;24.05;;;;;;;19.61;100.00;-18554.59;5103977;28;20074;-78
2023/08/03 06:08:22;;;;;;;26.75;25.00;;;;;;;19.85;100.00;-18560.88;5085859;28;20032;-79
2023/08/03 06:10:51;;;;;;;24.02;22.38;;;;;;;19.67;100.00;-18555.97;5101913;28;20046;-77
2023/08/03 06:13:18;;;;;;;24.38;22.65;;;;;;;19.64;100.00;-18555.16;5100138;28;20031;-79
2023/08/03 06:15:45;;;;;;;24.58;23.23;;;;;;;19.66;100.00;-18555.69;5101081;28;20075;-78
2023/08/03 06:18:14;;;;;;;24.63;23.00;;;;;;;19.46;100.00;-18550.53;5106075;28;20039;-77
2023/08/03 06:20:43;;;;;;;25.08;23.58;;;;;;;19.53;100.00;-18552.44;5102413;28;20130;-78
2023/08/03 06:23:22;;;;;;;;;;;;;;;19.43;100.00;-18549.69;5091494;28;20561;-79
2023/08/03 06:25:49;;;;;;;24.52;23.13;;;;;;;19.32;100.00;-18546.72;5109752;28;19924;-78
2023/08/03 06:28:16;;;;;;;27.05;25.45;;;;;;;19.64;100.00;-18555.16;5103184;28;20094;-78
2023/08/03 06:30:43;;;;;;;25.55;24.23;;;;;;;19.66;100.00;-18555.84;5107837;28;20044;-79
2023/08/03 06:33:10;;;;;;;25.25;24.00;;;;;;;19.51;100.00;-18551.88;5090134;28;20545;-77
2023/08/03 06:35:38;;;;;;;22.98;21.98;;;;;;;19.42;100.00;-18549.44;5106724;28;20051;-77
2023/08/03 06:38:32;;;;;;;23.90;22.75;;;;;;;19.61;100.00;-18554.59;5102069;28;20040;-78
2023/08/03 06:40:58;;;;;;;23.23;22.13;;;;;;;19.56;100.00;-18553.25;5106028;28;20091;-75
2023/08/03 06:43:23;;;;;;;23.48;22.27;;;;;;;19.58;100.00;-18553.78;5110198;28;20051;-77
2023/08/03 06:45:49;;;;;;;24.83;23.63;;;;;;;19.67;100.00;-18556.09;5109925;28;20040;-78
2023/08/03 06:48:15;;;;;;;25.20;24.02;;;;;;;19.67;100.00;-18556.09;5106769;28;20046;-79
2023/08/03 06:50:41;;;;;;;24.02;22.83;;;;;;;19.64;100.00;-18555.16;5105387;28;20047;-81
2023/08/03 06:53:07;;;;;;;25.15;23.85;;;;;;;19.85;100.00;-18560.88;5108389;28;20035;-77
2023/08/03 06:55:32;;;;;;;24.60;23.30;;;;;;;19.73;100.00;-18557.75;5098017;28;20509;-76
2023/08/03 06:57:57;;;;;;;22.83;21.73;;;;;;;19.58;100.00;-18553.78;5110265;28;20105;-76
2023/08/03 07:00:23;;;;;;;26.13;24.63;;;;;;;19.97;100.00;-18564.00;5090832;28;20104;-78
2023/08/03 07:02:49;;;;;;;23.95;22.73;;;;;;;19.81;100.00;-18559.91;5110519;28;20040;-78
2023/08/03 07:05:15;;;;;;;25.23;23.92;;;;;;;19.88;100.00;-18561.69;5107498;28;20317;-81
2023/08/03 07:07:40;;;;;;;24.45;23.05;;;;;;;19.91;100.00;-18562.50;5089136;28;20543;-78
2023/08/03 07:10:07;;;;;;;25.13;23.63;;;;;;;19.98;100.00;-18564.41;5100273;28;20036;-77
2023/08/03 07:12:34;;;;;;;24.77;23.30;;;;;;;19.88;100.00;-18561.69;5109104;27;20044;-77
2023/08/03 07:15:00;;;;;;;25.35;23.75;;;;;;;19.84;100.00;-18560.59;5106782;28;20131;-78
2023/08/03 07:17:25;;;;;;;26.67;25.20;;;;;;;19.90;100.00;-18562.22;5107818;28;20043;-77
2023/08/03 07:19:51;;;;;;;26.05;24.48;;;;;;;20.04;100.00;-18566.03;5108975;28;20392;-77
2023/08/03 07:22:23;;;;;;;26.55;25.05;;;;;;;19.98;100.00;-18564.41;5109475;28;20039;-77
2023/08/03 07:24:49;;;;;;;26.42;24.75;;;;;;;20.00;100.00;-18564.81;5091191;28;20040;-77
2023/08/03 07:27:15;;;;;;;27.10;25.70;;;;;;;20.02;100.00;-18565.38;5109675;28;20040;-77
2023/08/03 07:29:41;;;;;;;27.50;25.92;;;;;;;19.80;100.00;-18559.66;5109512;28;21030;-77
2023/08/03 07:32:07;;;;;;;25.20;23.70;;;;;;;19.66;100.00;-18555.84;5108488;27;20126;-78
2023/08/03 07:34:32;;;;;;;25.67;24.27;;;;;;;19.74;100.00;-18557.88;5110127;28;20487;-77
2023/08/03 07:36:59;;;;;;;25.95;24.55;;;;;;;19.84;100.00;-18560.59;5110515;28;20035;-77
2023/08/03 07:39:25;;;;;;;26.65;25.15;;;;;;;19.77;100.00;-18558.84;5109025;27;20177;-76
2023/08/03 07:41:51;;;;;;;26.80;25.05;;;;;;;19.69;100.00;-18556.53;5110353;28;20127;-77
2023/08/03 07:44:17;;;;;;;27.95;26.25;;;;;;;19.72;100.00;-18557.34;5109310;28;20491;-76
2023/08/03 07:46:43;;;;;;;25.48;23.98;;;;;;;19.58;100.00;-18553.78;5105302;28;20078;-77
2023/08/03 07:49:08;;;;;;;26.63;25.08;;;;;;;19.66;100.00;-18555.84;5093235;28;20122;-77
2023/08/03 07:51:33;;;;;;;28.65;27.05;;;;;;;19.79;100.00;-18559.25;5109343;28;20410;-78
2023/08/03 07:53:59;;;;;;;28.33;26.77;;;;;;;19.82;100.00;-18560.19;5110375;28;20059;-78
2023/08/03 07:56:24;;;;;;;27.38;25.45;;;;;;;19.87;100.00;-18561.28;5102852;28;20395;-75
2023/08/03 07:58:51;;;;;;;27.73;26.10;;;;;;;19.92;100.00;-18562.78;5109425;28;20032;-77
2023/08/03 08:01:18;;;;;;;26.80;25.45;;;;;;;19.99;100.00;-18564.69;5105324;28;20038;-77
2023/08/03 08:03:43;;;;;;;28.52;26.83;;;;;;;19.93;100.00;-18563.06;5108531;28;20059;-77
2023/08/03 08:06:10;;;;;;;28.60;26.88;;;;;;;19.89;100.00;-18561.97;5108531;28;20230;-75
2023/08/03 08:08:39;;;;;;;28.20;26.67;;;;;;;19.97;100.00;-18564.16;5109378;28;20089;-77
2023/08/03 08:11:05;;;;;;;29.52;28.15;;;;;;;20.04;100.00;-18565.91;5098132;28;20096;-77
2023/08/03 08:13:31;;;;;;;25.98;24.35;;;;;;;19.73;100.00;-18557.59;5109421;28;20035;-76
2023/08/03 08:16:00;;;;;;;27.00;25.40;;;;;;;19.87;100.00;-18561.41;5106574;28;20047;-78
2023/08/03 08:18:29;;;;;;;28.10;26.27;;;;;;;19.76;100.00;-18558.41;5105968;28;20123;-74
2023/08/03 08:20:55;;;;;;;28.63;26.48;;;;;;;19.73;100.00;-18557.59;5108334;28;20042;-77
2023/08/03 08:23:21;;;;;;;27.55;26.05;;;;;;;19.64;100.00;-18555.28;5103620;28;20059;-77
2023/08/03 08:25:46;;;;;;;28.70;27.10;;;;;;;19.60;100.00;-18554.19;5104889;28;20090;-78
2023/08/03 08:28:12;;;;;;;29.30;27.60;;;;;;;19.70;100.00;-18556.78;5107573;28;20046;-79
2023/08/03 08:30:37;;;;;;;27.60;25.98;;;;;;;19.86;100.00;-18561.00;5103891;28;20410;-76
2023/08/03 08:33:03;;;;;;;26.27;24.88;;;;;;;19.76;100.00;-18558.41;5108497;28;20039;-79
2023/08/03 08:35:28;;;;;;;26.73;25.15;;;;;;;19.73;100.00;-18557.59;5106929;28;20104;-78
2023/08/03 08:37:54;;;;;;;29.00;27.40;;;;;;;19.93;100.00;-18563.06;5108390;28;20122;-76
2023/08/03 08:40:19;;;;;;;28.60;26.95;;;;;;;20.00;100.00;-18564.97;5089918;28;20050;-77
2023/08/03 08:42:51;;;;;;;25.98;24.48;;;;;;;19.86;100.00;-18561.16;5101527;28;20032;-78
2023/08/03 08:45:17;;;;;;;26.05;24.52;;;;;;;19.77;100.00;-18558.84;5106180;28;20613;-77
2023/08/03 08:47:43;;;;;;;25.45;24.15;;;;;;;19.80;100.00;-18559.66;5088531;28;20572;-78
2023/08/03 08:50:08;;;;;;;25.55;24.25;;;;;;;19.76;100.00;-18558.41;5090429;28;20043;-78
2023/08/03 08:52:36;;;;;;;28.23;26.63;;;;;;;19.90;100.00;-18562.22;5107736;28;20335;-78
2023/08/03 08:55:12;;;;;;;29.00;26.60;;;;;;;19.89;100.00;-18561.97;5108911;28;20047;-78
2023/08/03 08:57:39;;;;;;;27.55;25.95;;;;;;;19.95;100.00;-18563.47;5077511;28;20074;-78
2023/08/03 09:00:06;;;;;;;25.27;23.83;;;;;;;19.80;100.00;-18559.50;5081625;28;20527;-76
2023/08/03 09:02:32;;;;;;;26.83;25.35;;;;;;;19.77;100.00;-18558.69;5106790;28;20043;-79
2023/08/03 09:05:08;;;;;;;27.42;26.00;;;;;;;19.92;100.00;-18562.66;5098681;27;20042;-80
2023/08/03 09:07:33;;;;;;;26.77;25.13;;;;;;;19.99;100.00;-18564.69;5101198;28;20698;-80
2023/08/03 09:10:02;;;;;;;28.02;26.52;;;;;;;20.07;100.00;-18566.72;5108794;28;20043;-77
2023/08/03 09:12:27;;;;;;;;;;;;;;;20.13;100.00;-18568.34;5100088;28;20044;-79
2023/08/03 09:14:55;;;;;;;27.93;26.23;;;;;;;19.95;100.00;-18563.59;5105906;28;19923;-77
2023/08/03 09:17:24;;;;;;;26.73;25.25;;;;;;;19.87;100.00;-18561.41;5106919;28;20653;-77
2023/08/03 09:19:51;;;;;;;28.73;27.23;;;;;;;19.95;100.00;-18563.59;5103641;28;20173;-80
2023/08/03 09:22:18;;;;;;;24.77;23.25;;;;;;;19.69;100.00;-18556.66;5094487;28;20432;-78
2023/08/03 09:24:47;;;;;;;26.10;24.90;;;;;;;19.70;100.00;-18556.94;5105833;28;20028;-79
2023/08/03 09:27:19;;;;;;;30.17;28.67;;;;;;;19.87;100.00;-18561.41;5107707;28;20040;-78
2023/08/03 09:29:44;;;;;;;26.52;24.98;;;;;;;19.76;100.00;-18558.41;5100116;28;20129;-79
2023/08/03 09:32:11;;;;;;;26.15;24.67;;;;;;;19.80;100.00;-18559.50;5107561;28;20047;-79
2023/08/03 09:34:42;;;;;;;26.15;24.75;;;;;;;19.75;100.00;-18558.16;5107470;28;20126;-78
2023/08/03 09:37:09;;;;;;;24.58;23.48;;;;;;;19.77;100.00;-18558.84;5107950;28;20123;-76
2023/08/03 09:39:36;;;;;;;23.95;22.75;;;;;;;19.69;100.00;-18556.66;5108415;28;20563;-80
2023/08/03 09:42:04;;;;;;;23.58;22.45;;;;;;;19.77;100.00;-18558.84;5105987;28;20048;-78
2023/08/03 09:44:31;;;;;;;25.42;24.30;;;;;;;19.88;100.00;-18561.69;5103404;28;20058;-78
2023/08/03 09:46:57;;;;;;;28.00;26.40;;;;;;;19.88;100.00;-18561.56;5082168;28;20031;-79
2023/08/03 09:49:24;;;;;;;27.17;25.98;;;;;;;19.92;100.00;-18562.78;5088292;28;20563;-79
2023/08/03 09:51:53;;;;;;;27.17;25.88;;;;;;;19.87;100.00;-18561.28;5103432;28;20189;-77
2023/08/03 09:54:30;;;;;;;26.55;25.27;;;;;;;19.81;100.00;-18559.78;5104455;28;20047;-80
2023/08/03 09:56:59;;;;;;;26.92;25.55;;;;;;;19.82;100.00;-18560.06;5103238;28;20047;-78
2023/08/03 09:59:27;;;;;;;28.83;27.10;;;;;;;19.82;100.00;-18560.06;5101829;28;20043;-77
2023/08/03 10:01:58;;;;;;;30.13;28.48;;;;;;;19.82;100.00;-18560.19;5087601;28;20043;-77
2023/08/03 10:04:27;;;;;;;28.80;27.30;;;;;;;19.81;100.00;-18559.91;5101266;28;20047;-78
2023/08/03 10:06:59;;;;;;;29.25;27.45;;;;;;;19.84;100.00;-18560.59;5091111;28;20039;-78
2023/08/03 10:09:29;;;;;;;28.35;26.85;;;;;;;19.94;100.00;-18563.31;5100731;28;20096;-78
2023/08/03 10:11:59;;;;;;;31.10;29.50;;;;;;;20.04;100.00;-18565.91;5105525;28;20039;-78
2023/08/03 10:14:32;;;;;;;30.38;28.98;;;;;;;19.94;100.00;-18563.19;5095507;28;20048;-77
2023/08/03 10:17:00;;;;;;;29.15;27.58;;;;;;;20.00;100.00;-18564.97;5095000;28;20043;-79
2023/08/03 10:19:28;;;;;;;33.53;32.00;;;;;;;20.05;100.00;-18566.31;5098948;28;20043;-81
2023/08/03 10:21:53;;;;;;;37.63;35.78;;;;;;;20.27;100.00;-18572.16;5099047;28;20046;-78
2023/08/03 10:24:19;;;;;;;28.33;26.95;;;;;;;20.37;100.00;-18574.63;5095643;28;20039;-77
2023/08/03 10:26:54;;;;;;;27.10;25.60;;;;;;;20.63;100.00;-18581.69;5100215;28;20078;-77
2023/08/03 10:29:55;;;;;;;27.13;25.73;;;;;;;20.79;100.00;-18585.91;5097313;28;20047;-81
2023/08/03 10:32:22;;;;;;;28.10;26.75;;;;;;;20.76;100.00;-18585.09;5099076;28;20047;-80
2023/08/03 10:34:52;;;;;;;30.38;28.88;;;;;;;21.01;100.00;-18591.63;5101725;28;20065;-79
2023/08/03 10:37:18;;;;;;;28.38;26.70;;;;;;;21.35;100.00;-18600.88;5100857;28;20039;-78
2023/08/03 10:39:59;;;;;;;28.92;27.35;;;;;;;21.32;100.00;-18600.06;5101922;28;20036;-78
2023/08/03 10:42:32;;;;;;;32.65;30.88;;;;;;;21.59;100.00;-18607.13;5097063;28;20051;-77
2023/08/03 10:45:24;;;;;;;34.47;32.70;;;;;;;21.80;100.00;-18612.84;5098368;28;20119;-78
2023/08/03 10:47:49;;;;;;;32.33;30.63;;;;;;;21.92;100.00;-18615.81;5074075;28;20052;-78
2023/08/03 10:50:14;;;;;;;34.55;32.58;;;;;;;21.94;100.00;-18616.38;5100665;28;20053;-79
2023/08/03 10:52:40;;;;;;;39.92;37.83;;;;;;;22.08;100.00;-18620.19;5102196;28;20124;-77
2023/08/03 10:55:26;;;;;;;35.03;33.22;;;;;;;22.18;100.00;-18622.91;5097697;28;20567;-76
2023/08/03 10:57:52;;;;;;;41.60;39.60;;;;;;;22.29;100.00;-18625.75;5092837;28;20130;-78
2023/08/03 11:00:18;;;;;;;33.33;31.52;;;;;;;22.27;100.00;-18625.34;5100578;28;20043;-79
2023/08/03 11:02:43;;;;;;;32.28;30.67;;;;;;;22.30;100.00;-18626.16;5103121;28;20040;-79